createdAt,value
2023-04-24T00:03:14.620Z,97961.31
2023-04-24T00:06:32.882Z,97954.58
2023-04-24T00:09:49.252Z,97951.30
2023-04-24T00:13:05.565Z,97948.06
2023-04-24T00:16:22.012Z,97951.92
2023-04-24T00:19:38.551Z,97945.63
2023-04-24T00:22:55.235Z,97949.52
2023-04-24T00:26:11.531Z,97941.77
2023-04-24T00:29:27.778Z,97945.45
2023-04-24T00:32:44.143Z,97933.22
2023-04-24T00:39:16.027Z,97930.59
2023-04-24T00:42:34.070Z,97931.24
2023-04-24T00:45:50.904Z,97925.53
2023-04-24T00:49:08.111Z,97923.89
2023-04-24T00:52:26.191Z,97920.03
2023-04-24T00:55:43.787Z,97915.34
2023-04-24T00:59:02.302Z,97910.88
2023-04-24T01:02:20.748Z,97906.59
2023-04-24T01:05:37.605Z,97920.09
2023-04-24T01:08:57.213Z,97916.00
2023-04-24T01:12:13.687Z,97917.64
2023-04-24T01:15:30.250Z,97914.78
2023-04-24T01:18:46.653Z,97914.55
2023-04-24T01:22:06.092Z,97912.33
2023-04-24T01:25:23.152Z,97903.55
2023-04-24T01:28:40.221Z,97906.00
2023-04-24T01:31:57.107Z,97905.17
2023-04-24T01:35:16.272Z,97899.66
2023-04-24T01:38:32.783Z,97894.13
2023-04-24T01:41:51.589Z,97897.79
2023-04-24T01:45:11.855Z,97892.67
2023-04-24T01:48:28.483Z,97888.83
2023-04-24T01:51:44.879Z,97883.55
2023-04-24T01:55:01.333Z,97884.17
2023-04-24T01:58:18.311Z,97879.64
2023-04-24T02:01:35.386Z,97873.74
2023-04-24T02:04:52.228Z,97878.20
2023-04-24T02:08:08.629Z,97869.81
2023-04-24T02:11:26.635Z,97863.53
2023-04-24T02:14:44.413Z,97857.84
2023-04-24T02:18:00.750Z,97852.72
2023-04-24T02:21:18.421Z,97845.59
2023-04-24T02:24:34.689Z,97845.20
2023-04-24T02:27:50.998Z,97843.98
2023-04-24T02:31:08.095Z,97851.95
2023-04-24T02:34:25.027Z,97837.25
2023-04-24T02:37:41.751Z,97832.98
2023-04-24T02:40:59.736Z,97826.81
2023-04-24T02:44:16.005Z,97825.80
2023-04-24T02:47:32.339Z,97829.28
2023-04-24T02:50:49.473Z,97824.14
2023-04-24T02:54:06.024Z,97817.38
2023-04-24T02:57:22.662Z,97809.81
2023-04-24T03:00:39.036Z,97809.44
2023-04-24T03:03:56.458Z,97804.94
2023-04-24T03:07:13.158Z,97811.88
2023-04-24T03:10:29.649Z,97813.09
2023-04-24T03:13:46.095Z,97813.67
2023-04-24T03:17:02.555Z,97815.09
2023-04-24T03:20:20.298Z,97815.69
2023-04-24T03:23:37.283Z,97818.55
2023-04-24T03:26:54.540Z,97816.63
2023-04-24T03:30:14.842Z,97809.39
2023-04-24T03:33:33.237Z,97812.45
2023-04-24T03:36:54.793Z,97808.95
2023-04-24T03:40:13.495Z,97822.56
2023-04-24T03:43:30.144Z,97814.45
2023-04-24T03:46:47.566Z,97814.89
2023-04-24T03:50:04.158Z,97814.89
2023-04-24T03:53:21.804Z,97821.08
2023-04-24T03:56:38.239Z,97815.92
2023-04-24T03:59:55.500Z,97811.53
2023-04-24T04:03:13.653Z,97815.54
2023-04-24T04:06:30.446Z,97812.31
2023-04-24T04:09:47.252Z,97813.60
2023-04-24T04:13:04.915Z,97816.32
2023-04-24T04:16:21.480Z,97819.06
2023-04-24T04:19:39.538Z,97821.92
2023-04-24T04:22:56.427Z,97817.84
2023-04-24T04:26:14.898Z,97817.47
2023-04-24T04:29:33.330Z,97814.41
2023-04-24T04:32:49.818Z,97817.31
2023-04-24T04:36:06.235Z,97809.42
2023-04-24T04:39:23.895Z,97817.00
2023-04-24T04:42:47.974Z,97808.88
2023-04-24T04:46:05.773Z,97811.11
2023-04-24T04:49:40.508Z,97812.73
2023-04-24T04:52:58.704Z,97805.82
2023-04-24T04:56:17.042Z,97814.80
2023-04-24T04:59:35.040Z,97801.38
2023-04-24T05:02:53.471Z,97801.36
2023-04-24T05:06:10.834Z,97815.00
2023-04-24T05:09:31.305Z,97808.88
2023-04-24T05:12:47.022Z,97807.64
2023-04-24T05:16:03.144Z,97812.95
2023-04-24T05:19:19.988Z,97813.95
2023-04-24T05:22:36.680Z,97811.70
2023-04-24T05:25:53.126Z,97801.23
2023-04-24T05:29:09.952Z,97810.80
2023-04-24T05:32:37.598Z,97810.31
2023-04-24T05:35:54.277Z,97806.09
2023-04-24T05:39:11.505Z,97813.59
2023-04-24T05:42:29.812Z,97805.92
2023-04-24T05:45:49.465Z,97804.97
2023-04-24T05:49:08.606Z,97801.06
2023-04-24T05:52:25.255Z,97806.02
2023-04-24T05:55:43.996Z,97793.27
2023-04-24T05:59:00.528Z,97803.03
2023-04-24T06:02:17.257Z,97801.22
2023-04-24T06:05:34.101Z,97800.70
2023-04-24T06:08:51.953Z,97803.07
2023-04-24T06:12:16.558Z,97798.75
2023-04-24T06:15:40.683Z,97809.73
2023-04-24T06:18:58.832Z,97809.02
2023-04-24T06:22:15.375Z,97804.09
2023-04-24T06:25:33.489Z,97803.11
2023-04-24T06:28:50.392Z,97797.47
2023-04-24T06:32:08.444Z,97787.80
2023-04-24T06:35:25.025Z,97791.00
2023-04-24T06:38:41.425Z,97792.81
2023-04-24T06:41:57.846Z,97789.36
2023-04-24T06:45:15.872Z,97787.61
2023-04-24T06:48:32.542Z,97782.73
2023-04-24T06:51:49.318Z,97787.98
2023-04-24T06:55:10.680Z,97777.84
2023-04-24T06:58:27.157Z,97790.63
2023-04-24T07:01:43.513Z,97787.92
2023-04-24T07:04:59.861Z,97792.17
2023-04-24T07:08:16.260Z,97787.92
2023-04-24T07:11:33.612Z,97786.03
2023-04-24T07:14:50.833Z,97784.52
2023-04-24T07:18:07.158Z,97780.47
2023-04-24T07:21:23.618Z,97783.19
2023-04-24T07:24:40.014Z,97779.29
2023-04-24T07:27:56.331Z,97777.41
2023-04-24T07:31:13.062Z,97779.20
2023-04-24T07:34:29.695Z,97775.93
2023-04-24T07:37:47.893Z,97777.49
2023-04-24T07:41:04.164Z,97793.77
2023-04-24T07:44:20.675Z,97786.83
2023-04-24T07:47:37.335Z,97788.19
2023-04-24T07:50:53.714Z,97796.21
2023-04-24T07:54:10.114Z,97788.01
2023-04-24T07:57:26.692Z,97790.92
2023-04-24T08:00:43.212Z,97797.70
2023-04-24T08:04:00.182Z,97780.13
2023-04-24T08:07:16.948Z,97776.44
2023-04-24T08:10:34.082Z,97773.62
2023-04-24T08:13:52.480Z,97776.88
2023-04-24T08:17:08.946Z,97769.10
2023-04-24T08:20:25.307Z,97764.06
2023-04-24T08:23:41.676Z,97768.57
2023-04-24T08:26:59.916Z,97763.16
2023-04-24T08:30:18.899Z,97757.75
2023-04-24T08:33:36.425Z,97763.62
2023-04-24T08:36:52.750Z,97757.57
2023-04-24T08:40:10.129Z,97752.27
2023-04-24T08:43:29.831Z,97755.59
2023-04-24T08:46:47.301Z,97757.16
2023-04-24T08:50:07.738Z,97754.95
2023-04-24T08:53:24.722Z,97761.00
2023-04-24T08:56:42.615Z,97754.45
2023-04-24T08:59:59.853Z,97755.34
2023-04-24T09:03:17.346Z,97748.47
2023-04-24T09:06:35.811Z,97749.63
2023-04-24T09:09:52.627Z,97736.96
2023-04-24T09:13:11.146Z,97745.74
2023-04-24T09:16:28.612Z,97734.23
2023-04-24T09:19:45.298Z,97731.70
2023-04-24T09:23:05.572Z,97726.32
2023-04-24T09:26:22.187Z,97725.98
2023-04-24T09:29:39.251Z,97732.03
2023-04-24T09:32:55.647Z,97718.95
2023-04-24T09:36:13.036Z,97734.09
2023-04-24T09:39:29.761Z,97728.06
2023-04-24T09:42:47.240Z,97721.24
2023-04-24T09:46:07.322Z,97713.18
2023-04-24T09:49:29.320Z,97708.84
2023-04-24T09:52:50.945Z,97714.13
2023-04-24T09:56:16.396Z,97717.22
2023-04-24T09:59:34.052Z,97713.31
2023-04-24T10:02:52.156Z,97702.50
2023-04-24T10:06:12.239Z,97699.01
2023-04-24T10:09:32.181Z,97700.11
2023-04-24T10:12:51.966Z,97695.07
2023-04-24T10:16:17.104Z,97685.58
2023-04-24T10:19:35.710Z,97676.78
2023-04-24T10:22:54.868Z,97675.93
2023-04-24T10:26:11.846Z,97675.25
2023-04-24T10:29:29.255Z,97668.80
2023-04-24T10:32:48.557Z,97674.42
2023-04-24T10:36:06.157Z,97670.73
2023-04-24T10:39:27.941Z,97673.99
2023-04-24T10:42:48.963Z,97660.94
2023-04-24T10:46:16.644Z,97658.63
2023-04-24T10:49:40.922Z,97654.56
2023-04-24T10:52:58.952Z,97657.31
2023-04-24T10:56:17.196Z,97647.91
2023-04-24T10:59:41.061Z,97642.63
2023-04-24T11:02:59.249Z,97636.00
2023-04-24T11:06:17.603Z,97638.62
2023-04-24T11:09:38.395Z,97640.50
2023-04-24T11:12:54.774Z,97645.09
2023-04-24T11:16:35.705Z,97640.28
2023-04-24T11:19:56.722Z,97627.02
2023-04-24T11:23:15.154Z,97637.83
2023-04-24T11:26:34.382Z,97625.03
2023-04-24T11:29:53.694Z,97626.52
2023-04-24T11:33:13.750Z,97626.05
2023-04-24T11:36:30.475Z,97624.95
2023-04-24T11:39:49.102Z,97631.75
2023-04-24T11:43:08.028Z,97617.79
2023-04-24T11:46:29.249Z,97613.32
2023-04-24T11:49:48.366Z,97613.54
2023-04-24T11:53:07.244Z,97605.97
2023-04-24T11:56:27.922Z,97604.06
2023-04-24T11:59:48.813Z,97602.83
2023-04-24T12:03:16.481Z,97599.72
2023-04-24T12:06:33.749Z,97592.38
2023-04-24T12:09:55.665Z,97584.86
2023-04-24T12:13:12.134Z,97584.27
2023-04-24T12:16:29.782Z,97579.36
2023-04-24T12:19:53.843Z,97586.02
2023-04-24T12:23:12.476Z,97582.91
2023-04-24T12:26:35.049Z,97573.51
2023-04-24T12:30:04.861Z,97576.18
2023-04-24T12:33:23.462Z,97567.08
2023-04-24T12:36:43.382Z,97567.02
2023-04-24T12:40:20.760Z,97564.87
2023-04-24T12:43:45.609Z,97557.11
2023-04-24T12:47:04.955Z,97555.19
2023-04-24T12:50:24.403Z,97577.05
2023-04-24T12:53:42.616Z,97586.28
2023-04-24T12:56:59.443Z,97579.81
2023-04-24T13:00:20.353Z,97575.51
2023-04-24T13:03:37.107Z,97578.34
2023-04-24T13:06:53.673Z,97575.98
2023-04-24T13:10:10.150Z,97576.27
2023-04-24T13:13:26.547Z,97577.11
2023-04-24T13:16:43.592Z,97576.91
2023-04-24T13:20:02.545Z,97572.13
2023-04-24T13:23:19.151Z,97569.98
2023-04-24T13:26:35.668Z,97579.66
2023-04-24T13:29:53.178Z,97585.32
2023-04-24T13:36:25.613Z,97585.05
2023-04-24T13:39:43.390Z,97590.98
2023-04-24T13:43:00.136Z,97597.09
2023-04-24T13:46:16.801Z,97594.88
2023-04-24T13:49:34.076Z,97601.51
2023-04-24T13:52:50.433Z,97594.45
2023-04-24T13:56:06.741Z,97601.44
2023-04-24T13:59:23.333Z,97602.92
2023-04-24T14:02:39.772Z,97601.25
2023-04-24T14:05:56.558Z,97617.16
2023-04-24T14:09:13.095Z,97610.15
2023-04-24T14:12:29.403Z,97615.74
2023-04-24T14:15:46.517Z,97618.69
2023-04-24T14:19:02.785Z,97617.48
2023-04-24T14:22:19.057Z,97616.77
2023-04-24T14:25:35.330Z,97613.78
2023-04-24T14:28:52.502Z,97622.59
2023-04-24T14:32:10.957Z,97622.66
2023-04-24T14:35:30.703Z,97621.22
2023-04-24T14:38:46.879Z,97617.91
2023-04-24T14:42:03.291Z,97614.16
2023-04-24T14:45:21.308Z,97624.58
2023-04-24T14:48:37.381Z,97615.59
2023-04-24T14:51:53.729Z,97623.93
2023-04-24T14:55:10.813Z,97626.08
2023-04-24T14:58:27.435Z,97621.91
2023-04-24T15:01:43.938Z,97623.64
2023-04-24T15:05:00.929Z,97618.08
2023-04-24T15:08:17.519Z,97619.34
2023-04-24T15:11:36.429Z,97614.13
2023-04-24T15:14:58.963Z,97623.38
2023-04-24T15:18:19.276Z,97621.24
2023-04-24T15:21:36.257Z,97612.46
2023-04-24T15:24:52.912Z,97620.75
2023-04-24T15:28:09.368Z,97624.73
2023-04-24T15:31:26.156Z,97619.44
2023-04-24T15:34:43.065Z,97625.63
2023-04-24T15:38:04.251Z,97617.02
2023-04-24T15:41:21.290Z,97616.78
2023-04-24T15:44:37.670Z,97612.29
2023-04-24T15:47:55.447Z,97608.60
2023-04-24T15:51:12.030Z,97605.93
2023-04-24T15:54:28.405Z,97610.16
2023-04-24T15:57:45.496Z,97618.83
2023-04-24T16:01:02.675Z,97623.54
2023-04-24T16:04:21.537Z,97625.36
2023-04-24T16:07:39.883Z,97624.90
2023-04-24T16:10:57.139Z,97625.19
2023-04-24T16:14:20.553Z,97625.59
2023-04-24T16:17:39.159Z,97628.59
2023-04-24T16:20:58.360Z,97621.93
2023-04-24T16:24:15.289Z,97617.16
2023-04-24T16:27:31.973Z,97614.16
2023-04-24T16:30:48.953Z,97618.29
2023-04-24T16:34:05.583Z,97619.81
2023-04-24T16:37:22.480Z,97618.84
2023-04-24T16:40:39.414Z,97611.08
2023-04-24T16:43:55.999Z,97606.78
2023-04-24T16:47:15.799Z,97616.09
2023-04-24T16:50:32.474Z,97609.13
2023-04-24T16:53:49.166Z,97618.69
2023-04-24T16:57:05.499Z,97612.92
2023-04-24T17:00:24.932Z,97614.05
2023-04-24T17:03:42.111Z,97613.17
2023-04-24T17:06:58.698Z,97606.13
2023-04-24T17:10:16.737Z,97613.33
2023-04-24T17:13:33.249Z,97609.17
2023-04-24T17:16:50.349Z,97603.50
2023-04-24T17:20:18.758Z,97603.98
2023-04-24T17:23:26.768Z,97611.33
2023-04-24T17:26:43.409Z,97619.92
2023-04-24T17:29:59.882Z,97612.70
2023-04-24T17:33:16.639Z,97613.20
2023-04-24T17:36:33.116Z,97605.98
2023-04-24T17:39:49.780Z,97605.52
2023-04-24T17:43:06.180Z,97602.73
2023-04-24T17:46:22.902Z,97602.55
2023-04-24T17:49:40.586Z,97598.05
2023-04-24T17:52:57.763Z,97604.18
2023-04-24T17:56:15.081Z,97600.84
2023-04-24T17:59:32.181Z,97606.78
2023-04-24T18:02:50.532Z,97613.19
2023-04-24T18:06:07.129Z,97615.62
2023-04-24T18:09:26.991Z,97617.80
2023-04-24T18:12:45.477Z,97624.32
2023-04-24T18:16:01.880Z,97625.59
2023-04-24T18:19:18.487Z,97633.48
2023-04-24T18:22:34.950Z,97625.94
2023-04-24T18:25:51.282Z,97617.27
2023-04-24T18:29:07.960Z,97620.43
2023-04-24T18:32:24.687Z,97629.23
2023-04-24T18:35:41.837Z,97626.22
2023-04-24T18:38:58.220Z,97626.35
2023-04-24T18:42:15.270Z,97634.23
2023-04-24T18:45:31.732Z,97632.36
2023-04-24T18:48:48.146Z,97633.30
2023-04-24T18:52:04.755Z,97640.02
2023-04-24T18:55:21.902Z,97639.58
2023-04-24T18:58:38.295Z,97639.22
2023-04-24T19:01:54.873Z,97633.30
2023-04-24T19:05:13.073Z,97640.02
2023-04-24T19:08:29.445Z,97641.28
2023-04-24T19:11:46.124Z,97638.05
2023-04-24T19:15:02.868Z,97643.04
2023-04-24T19:18:19.515Z,97639.33
2023-04-24T19:21:36.915Z,97644.53
2023-04-24T19:24:54.852Z,97646.16
2023-04-24T19:28:11.250Z,97637.81
2023-04-24T19:31:27.927Z,97639.55
2023-04-24T19:34:46.771Z,97634.56
2023-04-24T19:38:03.558Z,97641.42
2023-04-24T19:41:20.370Z,97645.58
2023-04-24T19:44:37.328Z,97641.63
2023-04-24T19:47:54.220Z,97644.08
2023-04-24T19:51:13.502Z,97634.35
2023-04-24T19:54:29.957Z,97634.80
2023-04-24T19:57:46.368Z,97630.86
2023-04-24T20:01:03.022Z,97627.63
2023-04-24T20:04:22.743Z,97633.87
2023-04-24T20:07:39.317Z,97623.44
2023-04-24T20:10:58.319Z,97625.20
2023-04-24T20:14:13.100Z,97628.90
2023-04-24T20:17:29.358Z,97634.82
2023-04-24T20:20:45.960Z,97626.72
2023-04-24T20:24:02.635Z,97625.88
2023-04-24T20:27:19.214Z,97631.70
2023-04-24T20:30:35.642Z,97633.77
2023-04-24T20:33:52.056Z,97632.03
2023-04-24T20:37:09.357Z,97633.63
2023-04-24T20:40:29.006Z,97634.67
2023-04-24T20:43:45.477Z,97634.91
2023-04-24T20:47:02.304Z,97629.58
2023-04-24T20:50:20.266Z,97637.13
2023-04-24T20:53:36.865Z,97635.50
2023-04-24T20:56:53.279Z,97632.00
2023-04-24T21:00:11.642Z,97636.77
2023-04-24T21:03:28.431Z,97630.61
2023-04-24T21:06:45.148Z,97627.95
2023-04-24T21:10:01.987Z,97626.00
2023-04-24T21:13:18.355Z,97630.85
2023-04-24T21:16:34.704Z,97639.55
2023-04-24T21:19:51.075Z,97633.64
2023-04-24T21:23:08.467Z,97631.89
2023-04-24T21:26:24.805Z,97627.59
2023-04-24T21:29:42.545Z,97637.33
2023-04-24T21:33:01.400Z,97634.44
2023-04-24T21:36:19.902Z,97634.43
2023-04-24T21:39:36.200Z,97630.85
2023-04-24T21:42:53.871Z,97623.22
2023-04-24T21:46:10.223Z,97627.59
2023-04-24T21:49:26.658Z,97627.59
2023-04-24T21:52:42.929Z,97631.20
2023-04-24T21:56:00.483Z,97624.37
2023-04-24T21:59:19.270Z,97621.58
2023-04-24T22:02:35.936Z,97622.39
2023-04-24T22:05:52.323Z,97627.00
2023-04-24T22:09:08.781Z,97618.66
2023-04-24T22:12:25.473Z,97620.84
2023-04-24T22:15:42.365Z,97622.47
2023-04-24T22:18:59.061Z,97627.91
2023-04-24T22:22:15.411Z,97624.21
2023-04-24T22:25:31.824Z,97625.64
2023-04-24T22:28:48.532Z,97621.22
2023-04-24T22:32:05.190Z,97621.27
2023-04-24T22:35:22.058Z,97618.61
2023-04-24T22:38:38.644Z,97619.38
2023-04-24T22:41:55.234Z,97623.97
2023-04-24T22:45:14.322Z,97616.28
2023-04-24T22:48:30.859Z,97616.47
2023-04-24T22:51:48.901Z,97617.65
2023-04-24T22:55:05.152Z,97610.78
2023-04-24T22:58:21.577Z,97608.87
2023-04-24T23:01:37.844Z,97599.77
2023-04-24T23:04:55.235Z,97599.55
2023-04-24T23:08:11.953Z,97600.23
2023-04-24T23:11:28.532Z,97599.02
2023-04-24T23:14:44.920Z,97596.59
2023-04-24T23:18:01.244Z,97590.63
2023-04-24T23:21:18.356Z,97578.73
2023-04-24T23:24:34.739Z,97582.94
2023-04-24T23:27:51.023Z,97576.22
2023-04-24T23:31:07.480Z,97573.42
2023-04-24T23:34:23.878Z,97585.60
2023-04-24T23:37:40.696Z,97577.71
2023-04-24T23:40:57.504Z,97576.00
2023-04-24T23:44:14.178Z,97575.94
2023-04-24T23:47:30.681Z,97571.05
2023-04-24T23:50:47.170Z,97568.77
2023-04-24T23:54:04.187Z,97567.73
2023-04-24T23:57:20.885Z,97564.98
